Time;durP1;ratioP1;P1;durP2;ratioP2;P2;SDS_P1;SDS_P2;PMS_P1;PMS_P2;Temp;Humidity;BMP_temperature;BMP_pressure;BME280_temperature;BME280_humidity;BME280_pressure;Samples;Min_cycle;Max_cycle;Signal;HPM_P1;HPM_P2
2023/10/05 00:03:05;;;;;;;1999.90;999.90;;;12.00;99.90;;;;;;5055080;28;20083;-76
2023/10/05 00:05:35;;;;;;;1999.90;999.90;;;12.00;99.90;;;;;;5054645;28;20021;-76
2023/10/05 00:08:03;;;;;;;1999.90;999.90;;;12.00;99.90;;;;;;5054903;28;20044;-76
2023/10/05 00:10:28;;;;;;;1999.90;999.90;;;12.00;99.90;;;;;;5054857;28;20484;-73
2023/10/05 00:12:57;;;;;;;1999.90;999.90;;;11.90;99.90;;;;;;5054442;28;20021;-73
2023/10/05 00:15:23;;;;;;;1999.90;999.90;;;11.90;99.90;;;;;;5054631;28;20018;-75
2023/10/05 00:17:49;;;;;;;1999.90;999.90;;;11.80;99.90;;;;;;5054863;28;20044;-76
2023/10/05 00:20:24;;;;;;;1999.90;999.90;;;11.70;99.90;;;;;;5054124;28;20025;-76
2023/10/05 00:22:51;;;;;;;1999.90;999.90;;;11.70;99.90;;;;;;5054789;28;20116;-73
2023/10/05 00:25:17;;;;;;;1999.90;999.90;;;11.70;99.90;;;;;;5051024;28;20559;-73
2023/10/05 00:27:50;;;;;;;1999.90;999.90;;;11.60;99.90;;;;;;5034417;28;20029;-73
2023/10/05 00:30:17;;;;;;;1999.90;999.90;;;11.70;99.90;;;;;;5034646;28;20072;-76
2023/10/05 00:32:47;;;;;;;1999.90;999.90;;;11.70;99.90;;;;;;5034443;28;20017;-73
2023/10/05 00:35:28;;;;;;;1999.90;999.90;;;11.80;99.90;;;;;;5034688;28;20036;-76
2023/10/05 00:38:18;;;;;;;1999.90;999.90;;;11.80;99.90;;;;;;5034254;28;20404;-73
2023/10/05 00:40:57;;;;;;;1999.90;999.90;;;11.90;99.90;;;;;;5041292;28;20040;-76
2023/10/05 00:43:24;;;;;;;1999.90;999.90;;;11.90;99.90;;;;;;5054524;28;20029;-76
2023/10/05 00:45:51;;;;;;;1999.90;999.90;;;12.00;99.90;;;;;;5053692;28;20112;-76
2023/10/05 00:48:34;;;;;;;1999.90;999.90;;;12.00;99.90;;;;;;5053928;28;20036;-76
2023/10/05 00:51:08;;;;;;;1999.90;999.90;;;11.90;99.90;;;;;;5053911;28;20452;-73
2023/10/05 00:53:35;;;;;;;1999.90;999.90;;;11.90;99.90;;;;;;5053889;28;20399;-76
2023/10/05 00:56:08;;;;;;;1999.90;999.90;;;11.80;99.90;;;;;;5054202;28;20025;-76
2023/10/05 00:58:44;;;;;;;1999.90;999.90;;;11.70;99.90;;;;;;5053903;28;20035;-76
2023/10/05 01:01:23;;;;;;;1999.90;999.90;;;11.60;99.90;;;;;;5052450;28;20037;-76
2023/10/05 01:06:41;;;;;;;1999.90;999.90;;;11.50;99.90;;;;;;5053375;28;20506;-73
2023/10/05 01:09:32;;;;;;;1999.90;999.90;;;11.50;99.90;;;;;;5053626;28;20394;-73
2023/10/05 01:12:11;;;;;;;1999.90;999.90;;;11.50;99.90;;;;;;5053659;28;20357;-76
2023/10/05 01:14:51;;;;;;;1999.90;999.90;;;11.50;99.90;;;;;;5052425;28;20102;-75
2023/10/05 01:17:21;;;;;;;1999.90;999.90;;;11.50;99.90;;;;;;5053297;28;20491;-73
2023/10/05 01:19:58;;;;;;;1999.90;999.90;;;11.60;99.90;;;;;;5053900;28;20454;-73
2023/10/05 01:22:32;;;;;;;1999.90;999.90;;;11.60;99.90;;;;;;5053450;28;20080;-75
2023/10/05 01:25:04;;;;;;;1999.90;999.90;;;11.60;99.90;;;;;;5052427;28;20044;-73
2023/10/05 01:27:31;;;;;;;1999.90;999.90;;;11.60;99.90;;;;;;5033385;28;20077;-76
2023/10/05 01:29:56;;;;;;;1999.90;999.90;;;11.60;99.90;;;;;;5033541;28;20310;-73
2023/10/05 01:32:23;;;;;;;1999.90;999.90;;;11.60;99.90;;;;;;5032898;28;20017;-76
2023/10/05 01:34:50;;;;;;;1999.90;999.90;;;11.50;99.90;;;;;;5033688;28;20018;-76
2023/10/05 01:37:18;;;;;;;1999.90;999.90;;;11.60;99.90;;;;;;5047394;28;20054;-76
2023/10/05 01:39:44;;;;;;;1999.90;999.90;;;11.60;99.90;;;;;;5053092;28;20033;-73
2023/10/05 01:42:13;;;;;;;1999.90;999.90;;;11.60;99.90;;;;;;5053182;28;20033;-73
2023/10/05 01:44:47;;;;;;;1999.90;999.90;;;11.50;99.90;;;;;;5052991;28;20025;-73
2023/10/05 01:47:16;;;;;;;1999.90;999.90;;;11.30;99.90;;;;;;5052581;28;20033;-75
2023/10/05 01:49:43;;;;;;;1999.90;999.90;;;11.20;99.90;;;;;;5053357;28;20048;-76
2023/10/05 01:52:12;;;;;;;1999.90;999.90;;;11.20;99.90;;;;;;5053010;28;20009;-73
2023/10/05 01:54:37;;;;;;;1999.90;999.90;;;11.20;99.90;;;;;;5052991;28;20100;-73
2023/10/05 01:57:07;;;;;;;1999.90;999.90;;;11.10;99.90;;;;;;5052873;28;20540;-73
2023/10/05 01:59:35;;;;;;;1999.90;999.90;;;11.00;99.90;;;;;;5052993;28;20032;-76
2023/10/05 02:02:01;;;;;;;1999.90;999.90;;;11.00;99.90;;;;;;5052931;28;20043;-75
2023/10/05 02:04:29;;;;;;;1999.90;999.90;;;10.90;99.90;;;;;;5051684;28;20024;-76
2023/10/05 02:06:55;;;;;;;1999.90;999.90;;;10.90;99.90;;;;;;5052336;28;20400;-76
2023/10/05 02:09:21;;;;;;;1999.90;999.90;;;10.90;99.90;;;;;;5052951;28;20109;-73
2023/10/05 02:11:47;;;;;;;1999.90;999.90;;;10.80;99.90;;;;;;5052736;28;20013;-73
2023/10/05 02:14:16;;;;;;;1999.90;999.90;;;10.80;99.90;;;;;;5052695;28;20104;-72
2023/10/05 02:16:48;;;;;;;1999.90;999.90;;;10.70;99.90;;;;;;5052366;28;20043;-76
2023/10/05 02:19:14;;;;;;;1999.90;999.90;;;10.60;99.90;;;;;;5052155;28;20033;-76
2023/10/05 02:21:40;;;;;;;1999.90;999.90;;;10.60;99.90;;;;;;5052336;28;20442;-72
2023/10/05 02:24:19;;;;;;;1999.90;999.90;;;10.50;99.90;;;;;;5052612;28;20025;-73
2023/10/05 02:29:26;;;;;;;1999.90;999.90;;;10.40;99.90;;;;;;5032807;28;20034;-75
2023/10/05 02:34:38;;;;;;;1999.90;999.90;;;10.30;99.90;;;;;;5032778;28;20112;-73
2023/10/05 02:37:10;;;;;;;1999.90;999.90;;;10.30;99.90;;;;;;5043854;28;20472;-73
2023/10/05 02:39:37;;;;;;;1999.90;999.90;;;10.30;99.90;;;;;;5051228;28;20025;-73
2023/10/05 02:42:06;;;;;;;1999.90;999.90;;;10.30;99.90;;;;;;5052145;28;20037;-73
2023/10/05 02:44:35;;;;;;;1999.90;999.90;;;10.30;99.90;;;;;;5054705;28;20025;-76
2023/10/05 02:47:02;;;;;;;1999.90;999.90;;;10.30;99.90;;;;;;5056357;28;20373;-73
2023/10/05 02:49:28;;;;;;;1999.90;999.90;;;10.30;99.90;;;;;;5056426;28;20013;-73
2023/10/05 02:51:54;;;;;;;1999.90;999.90;;;10.30;99.90;;;;;;5056325;28;20029;-76
2023/10/05 02:54:22;;;;;;;1999.90;999.90;;;10.20;99.90;;;;;;5056406;28;20016;-76
2023/10/05 02:56:48;;;;;;;1999.90;999.90;;;10.20;99.90;;;;;;5056151;28;20047;-76
2023/10/05 02:59:20;;;;;;;1999.90;999.90;;;10.20;99.90;;;;;;5056169;28;20400;-73
2023/10/05 03:01:45;;;;;;;1999.90;999.90;;;10.10;99.90;;;;;;5054934;28;20473;-73
2023/10/05 03:06:40;;;;;;;1999.90;999.90;;;10.00;99.90;;;;;;5055621;28;20376;-76
2023/10/05 03:09:10;;;;;;;1999.90;999.90;;;10.00;99.90;;;;;;5054399;28;20399;-76
2023/10/05 03:11:46;;;;;;;1999.90;999.90;;;10.00;99.90;;;;;;5054729;28;20120;-75
2023/10/05 03:14:12;;;;;;;1999.90;999.90;;;9.90;99.90;;;;;;5055999;28;20027;-73
2023/10/05 03:16:47;;;;;;;1999.90;999.90;;;9.90;99.90;;;;;;5055921;28;20067;-73
2023/10/05 03:19:20;;;;;;;1999.90;999.90;;;9.90;99.90;;;;;;5055731;28;20029;-76
2023/10/05 03:21:46;;;;;;;1999.90;999.90;;;9.90;99.90;;;;;;5054433;28;20037;-75
2023/10/05 03:24:14;;;;;;;1999.90;999.90;;;9.90;99.90;;;;;;5055935;28;20452;-76
2023/10/05 03:26:41;;;;;;;1999.90;999.90;;;9.80;99.90;;;;;;5040607;28;20049;-73
2023/10/05 03:29:07;;;;;;;1999.90;999.90;;;9.80;99.90;;;;;;5035653;28;20387;-73
2023/10/05 03:31:37;;;;;;;1999.90;999.90;;;9.80;99.90;;;;;;5035607;28;20022;-76
2023/10/05 03:34:06;;;;;;;1999.90;999.90;;;9.80;99.90;;;;;;5035615;28;20101;-73
2023/10/05 03:36:33;;;;;;;1999.90;999.90;;;9.80;99.90;;;;;;5041285;28;20032;-75
2023/10/05 03:39:03;;;;;;;1999.90;999.90;;;9.80;99.90;;;;;;5055240;28;20125;-73
2023/10/05 03:41:28;;;;;;;1999.90;999.90;;;9.80;99.90;;;;;;5055514;28;20078;-73
2023/10/05 03:44:01;;;;;;;1999.90;999.90;;;9.70;99.90;;;;;;5055453;28;20044;-76
2023/10/05 03:46:27;;;;;;;1999.90;999.90;;;9.80;99.90;;;;;;5055373;28;20021;-75
2023/10/05 03:48:59;;;;;;;1999.90;999.90;;;9.80;99.90;;;;;;5055246;28;20029;-75
2023/10/05 03:51:26;;;;;;;1999.90;999.90;;;9.80;99.90;;;;;;5053875;28;20078;-72
2023/10/05 03:53:51;;;;;;;1999.90;999.90;;;9.70;99.90;;;;;;5054636;28;20183;-73
2023/10/05 03:56:21;;;;;;;1999.90;999.90;;;9.80;99.90;;;;;;5054187;28;20580;-75
2023/10/05 03:58:47;;;;;;;1999.90;999.90;;;9.70;99.90;;;;;;5055119;28;20067;-75
2023/10/05 04:01:14;;;;;;;1999.90;999.90;;;9.60;99.90;;;;;;5054792;28;20044;-75
2023/10/05 04:03:44;;;;;;;1999.90;999.90;;;9.60;99.90;;;;;;5055159;28;20029;-75
2023/10/05 04:06:26;;;;;;;1999.90;999.90;;;9.50;99.90;;;;;;5053468;28;20565;-72
2023/10/05 04:08:59;;;;;;;1999.90;999.90;;;9.60;99.90;;;;;;5054659;28;20021;-75
2023/10/05 04:11:27;;;;;;;1999.90;999.90;;;9.60;99.90;;;;;;5054849;28;20151;-75
2023/10/05 04:13:54;;;;;;;1999.90;999.90;;;9.60;99.90;;;;;;5054875;28;20063;-76
2023/10/05 04:16:22;;;;;;;1999.90;999.90;;;9.60;99.90;;;;;;5054849;28;20057;-75
2023/10/05 04:18:52;;;;;;;1999.90;999.90;;;9.60;99.90;;;;;;5054738;28;20525;-75
2023/10/05 04:21:18;;;;;;;1999.90;999.90;;;9.60;99.90;;;;;;5054625;28;20522;-73
2023/10/05 04:23:49;;;;;;;1999.90;999.90;;;9.60;99.90;;;;;;5054689;28;20029;-76
2023/10/05 04:26:19;;;;;;;1999.90;999.90;;;9.60;99.90;;;;;;5054259;28;20052;-75
2023/10/05 04:28:52;;;;;;;1999.90;999.90;;;9.60;99.90;;;;;;5054389;28;20120;-72
2023/10/05 04:31:25;;;;;;;1999.90;999.90;;;9.60;99.90;;;;;;5054572;28;20484;-72
2023/10/05 04:33:55;;;;;;;1999.90;999.90;;;9.60;99.90;;;;;;5053020;28;20403;-76
2023/10/05 04:36:25;;;;;;;1999.90;999.90;;;9.50;99.90;;;;;;5054363;28;20357;-73
2023/10/05 04:38:55;;;;;;;1999.90;999.90;;;9.50;99.90;;;;;;5054322;28;20532;-76
2023/10/05 04:41:28;;;;;;;1999.90;999.90;;;9.50;99.90;;;;;;5054136;28;20033;-73
2023/10/05 04:44:00;;;;;;;1999.90;999.90;;;9.50;99.90;;;;;;5053015;28;20028;-76
2023/10/05 04:46:28;;;;;;;1999.90;999.90;;;9.50;99.90;;;;;;5054275;28;20108;-72
2023/10/05 04:51:51;;;;;;;1999.90;999.90;;;9.60;99.90;;;;;;5044619;28;20483;-76
2023/10/05 04:54:25;;;;;;;1999.90;999.90;;;9.60;99.90;;;;;;5054156;28;20482;-76
2023/10/05 04:56:54;;;;;;;1999.90;999.90;;;9.60;99.90;;;;;;5048640;28;20087;-76
2023/10/05 05:02:12;;;;;;;1999.90;999.90;;;9.60;99.90;;;;;;5034158;28;20029;-73
2023/10/05 05:04:52;;;;;;;1999.90;999.90;;;9.60;99.90;;;;;;5035104;28;20022;-76
2023/10/05 05:07:21;;;;;;;1999.90;999.90;;;9.60;99.90;;;;;;5053528;28;20028;-76
2023/10/05 05:09:47;;;;;;;1999.90;999.90;;;9.60;99.90;;;;;;5053294;28;20028;-73
2023/10/05 05:12:16;;;;;;;1999.90;999.90;;;9.60;99.90;;;;;;5053520;28;20365;-73
2023/10/05 05:14:46;;;;;;;1999.90;999.90;;;9.50;99.90;;;;;;5053517;28;20365;-76
2023/10/05 05:17:18;;;;;;;1999.90;999.90;;;9.50;99.90;;;;;;5053360;28;20048;-76
2023/10/05 05:19:45;;;;;;;1999.90;999.90;;;9.50;99.90;;;;;;5053577;28;20025;-76
2023/10/05 05:22:13;;;;;;;1999.90;999.90;;;9.50;99.90;;;;;;5053186;28;20517;-73
2023/10/05 05:24:41;;;;;;;1999.90;999.90;;;9.40;99.90;;;;;;5053083;28;20021;-73
2023/10/05 05:29:53;;;;;;;1999.90;999.90;;;9.30;99.90;;;;;;5052901;28;20087;-76
2023/10/05 05:32:19;;;;;;;1999.90;999.90;;;9.40;99.90;;;;;;5050717;28;20111;-75
2023/10/05 05:34:46;;;;;;;1999.90;999.90;;;9.30;99.90;;;;;;5051826;28;20036;-76
2023/10/05 05:39:44;;;;;;;1999.90;999.90;;;9.40;99.90;;;;;;5052867;28;20400;-73
2023/10/05 05:42:14;;;;;;;1999.90;999.90;;;9.30;99.90;;;;;;5052464;28;20024;-76
2023/10/05 05:44:41;;;;;;;1999.90;999.90;;;9.40;99.90;;;;;;5051246;28;20041;-76
2023/10/05 05:47:10;;;;;;;1999.90;999.90;;;9.30;99.90;;;;;;5045944;28;20025;-73
2023/10/05 05:49:45;;;;;;;1999.90;999.90;;;9.30;99.90;;;;;;5043647;28;20010;-73
2023/10/05 05:52:12;;;;;;;1999.90;999.90;;;9.20;99.90;;;;;;5052062;28;20068;-73
2023/10/05 05:54:38;;;;;;;1999.90;999.90;;;9.20;99.90;;;;;;5052226;28;20017;-76
2023/10/05 05:57:08;;;;;;;1999.90;999.90;;;9.20;99.90;;;;;;5052035;28;20040;-73
2023/10/05 05:59:40;;;;;;;1999.90;999.90;;;9.20;99.90;;;;;;5049557;28;20104;-76
2023/10/05 06:02:10;;;;;;;1999.90;999.90;;;9.10;99.90;;;;;;5052128;28;20060;-73
2023/10/05 06:04:38;;;;;;;1999.90;999.90;;;9.10;99.90;;;;;;5051199;28;20021;-73
2023/10/05 06:07:11;;;;;;;1999.90;999.90;;;9.10;99.90;;;;;;5051643;28;20021;-73
2023/10/05 06:09:42;;;;;;;1999.90;999.90;;;9.10;99.90;;;;;;5050208;28;20025;-76
2023/10/05 06:12:11;;;;;;;1999.90;999.90;;;9.10;99.90;;;;;;5050521;28;20120;-73
2023/10/05 06:14:40;;;;;;;1999.90;999.90;;;9.20;99.90;;;;;;5050305;28;20048;-76
2023/10/05 06:17:09;;;;;;;1999.90;999.90;;;9.20;99.90;;;;;;5050349;28;20031;-73
2023/10/05 06:19:36;;;;;;;1999.90;999.90;;;9.20;99.90;;;;;;5048236;28;20021;-75
2023/10/05 06:22:03;;;;;;;1999.90;999.90;;;9.30;99.90;;;;;;5046808;28;20037;-75
2023/10/05 06:24:29;;;;;;;1999.90;999.90;;;9.30;99.90;;;;;;5049756;28;20016;-75
2023/10/05 06:26:55;;;;;;;1999.90;999.90;;;9.30;99.90;;;;;;5044842;28;20029;-75
2023/10/05 06:29:21;;;;;;;1999.90;999.90;;;9.30;99.90;;;;;;5049073;28;20064;-73
2023/10/05 06:31:46;;;;;;;1999.90;999.90;;;9.30;99.90;;;;;;5050364;28;20029;-73
2023/10/05 06:34:12;;;;;;;1999.90;999.90;;;9.30;99.90;;;;;;5049091;28;20032;-75
2023/10/05 06:36:39;;;;;;;1999.90;999.90;;;9.30;99.90;;;;;;5046029;28;20029;-75
2023/10/05 06:39:09;;;;;;;1999.90;999.90;;;9.30;99.90;;;;;;5047235;28;21061;-75
2023/10/05 06:41:36;;;;;;;1999.90;999.90;;;9.40;99.90;;;;;;5049909;28;20032;-73
2023/10/05 06:44:02;;;;;;;1999.90;999.90;;;9.40;99.90;;;;;;5050381;28;20071;-73
2023/10/05 06:46:28;;;;;;;1999.90;999.90;;;9.40;99.90;;;;;;5048215;28;20021;-73
2023/10/05 06:48:55;;;;;;;1999.90;999.90;;;9.50;99.90;;;;;;5048513;28;20065;-76
2023/10/05 06:51:27;;;;;;;1999.90;999.90;;;9.40;99.90;;;;;;5050249;28;20483;-75
2023/10/05 06:53:59;;;;;;;1999.90;999.90;;;9.50;99.90;;;;;;5050721;28;20468;-72
2023/10/05 06:56:26;;;;;;;1999.90;999.90;;;9.50;99.90;;;;;;5044962;28;20033;-76
2023/10/05 06:58:52;;;;;;;1999.90;999.90;;;9.50;99.90;;;;;;5043552;28;20033;-76
2023/10/05 07:01:21;;;;;;;1999.90;999.90;;;9.60;99.90;;;;;;5043111;28;20056;-75
2023/10/05 07:03:52;;;;;;;1999.90;999.90;;;9.60;99.90;;;;;;5040248;28;20530;-76
2023/10/05 07:06:25;;;;;;;1999.90;999.90;;;9.70;99.90;;;;;;5043858;28;20040;-76
2023/10/05 07:08:54;;;;;;;1999.90;999.90;;;9.80;99.90;;;;;;5048058;28;20032;-76
2023/10/05 07:11:20;;;;;;;1999.90;999.90;;;9.90;99.90;;;;;;5049752;28;20033;-72
2023/10/05 07:13:49;;;;;;;1999.90;999.90;;;10.10;99.90;;;;;;5049564;28;20021;-76
2023/10/05 07:16:15;;;;;;;1999.90;999.90;;;10.20;99.90;;;;;;5046627;28;20122;-76
2023/10/05 07:18:41;;;;;;;1999.90;999.90;;;10.30;99.90;;;;;;5048167;28;21571;-73
2023/10/05 07:21:11;;;;;;;1999.90;999.90;;;10.50;99.90;;;;;;5048636;28;20104;-73
2023/10/05 07:23:37;;;;;;;1999.90;999.90;;;10.60;99.90;;;;;;5049662;28;20025;-75
2023/10/05 07:26:07;;;;;;;1999.90;999.90;;;10.80;99.90;;;;;;5049232;28;20091;-72
2023/10/05 07:28:35;;;;;;;1999.90;999.90;;;10.90;99.90;;;;;;5048814;28;20029;-76
2023/10/05 07:31:02;;;;;;;1999.90;999.90;;;11.10;99.90;;;;;;5050707;28;20017;-76
2023/10/05 07:33:33;;;;;;;1999.90;999.90;;;11.40;99.90;;;;;;5050405;28;20025;-73
2023/10/05 07:35:59;;;;;;;1999.90;999.90;;;11.50;99.90;;;;;;5052877;28;20112;-73
2023/10/05 07:38:28;;;;;;;1999.90;999.90;;;11.80;99.90;;;;;;5049418;28;20042;-75
2023/10/05 07:40:56;;;;;;;1999.90;999.90;;;12.00;99.90;;;;;;5047737;28;20459;-75
2023/10/05 07:43:23;;;;;;;1999.90;999.90;;;12.20;99.90;;;;;;5050745;28;20029;-75
2023/10/05 07:45:49;;;;;;;1999.90;999.90;;;12.50;99.90;;;;;;5047532;28;20079;-73
2023/10/05 07:48:15;;;;;;;1999.90;999.90;;;12.70;99.90;;;;;;5050565;28;20419;-74
2023/10/05 07:50:40;;;;;;;1999.90;999.90;;;12.90;99.90;;;;;;5051459;28;20045;-73
2023/10/05 07:53:06;;;;;;;1999.90;999.90;;;13.00;99.90;;;;;;5051668;28;20032;-75
2023/10/05 07:55:32;;;;;;;1999.90;999.90;;;13.20;99.90;;;;;;5052529;28;20083;-75
2023/10/05 07:57:57;;;;;;;1999.90;999.90;;;13.40;99.90;;;;;;5051204;28;20060;-76
2023/10/05 08:00:23;;;;;;;1999.90;999.90;;;13.50;99.90;;;;;;5043159;28;20026;-74
2023/10/05 08:02:49;;;;;;;1999.90;999.90;;;13.60;99.90;;;;;;5050561;28;20498;-75
2023/10/05 08:05:17;;;;;;;1999.90;999.90;;;13.80;99.90;;;;;;5050500;28;20116;-75
2023/10/05 08:07:46;;;;;;;1999.90;999.90;;;14.50;99.90;;;;;;5051240;28;20546;-76
2023/10/05 08:10:19;;;;;;;1999.90;999.90;;;15.20;99.90;;;;;;5051033;28;20032;-77
2023/10/05 08:12:45;;;;;;;1999.90;999.90;;;16.40;99.90;;;;;;5052400;28;20040;-75
2023/10/05 08:15:18;;;;;;;1999.90;999.90;;;17.50;99.90;;;;;;5051702;28;20032;-76
2023/10/05 08:17:47;;;;;;;1999.90;999.90;;;17.30;99.90;;;;;;5052012;28;20044;-74
2023/10/05 08:20:15;;;;;;;1999.90;999.90;;;17.30;99.90;;;;;;5049538;28;20059;-77
2023/10/05 08:22:41;;;;;;;1999.90;999.90;;;18.40;99.90;;;;;;5050286;28;20036;-77
2023/10/05 08:25:11;;;;;;;1999.90;999.90;;;19.80;99.90;;;;;;5047468;28;20099;-75
2023/10/05 08:27:38;;;;;;;1999.90;999.90;;;20.60;99.90;;;;;;5047580;28;20043;-76
2023/10/05 08:30:08;;;;;;;1999.90;999.90;;;19.50;99.90;;;;;;5047849;28;20451;-77
2023/10/05 08:32:34;;;;;;;1999.90;999.90;;;19.40;99.90;;;;;;5049636;28;20112;-77
2023/10/05 08:35:07;;;;;;;1999.90;999.90;;;20.10;99.90;;;;;;5048147;28;20100;-77
2023/10/05 08:37:42;;;;;;;1999.90;999.90;;;20.20;99.90;;;;;;5050153;28;20037;-77
2023/10/05 08:40:27;;;;;;;1999.90;999.90;;;20.50;99.90;;;;;;5049792;28;20032;-75
2023/10/05 08:42:55;;;;;;;1999.90;999.90;;;20.50;99.90;;;;;;5049453;28;20036;-75
2023/10/05 08:45:23;;;;;;;1999.90;999.90;;;20.90;99.90;;;;;;5050026;28;20041;-77
2023/10/05 08:47:53;;;;;;;1999.90;999.90;;;21.60;99.90;;;;;;5049849;28;20025;-75
2023/10/05 08:50:22;;;;;;;1999.90;999.90;;;22.80;99.90;;;;;;5050179;28;20092;-73
2023/10/05 08:52:47;;;;;;;1999.90;999.90;;;23.90;99.90;;;;;;5050061;28;20035;-74
2023/10/05 08:55:14;;;;;;;1999.90;999.90;;;24.80;99.90;;;;;;5049839;28;20036;-73
2023/10/05 08:57:40;;;;;;;1999.90;999.90;;;24.70;99.90;;;;;;5049241;28;20078;-76
2023/10/05 09:00:07;;;;;;;1999.90;999.90;;;24.70;99.90;;;;;;5048078;28;20021;-76
2023/10/05 09:02:36;;;;;;;1999.90;999.90;;;24.80;99.90;;;;;;5048883;28;20040;-74
2023/10/05 09:05:07;;;;;;;1999.90;999.90;;;25.30;99.90;;;;;;5049177;28;20071;-73
2023/10/05 09:07:37;;;;;;;1999.90;999.90;;;25.20;99.90;;;;;;5050051;28;20051;-73
2023/10/05 09:10:08;;;;;;;1999.90;999.90;;;24.20;99.90;;;;;;5049060;28;20411;-76
2023/10/05 09:12:34;;;;;;;1999.90;999.90;;;23.90;99.90;;;;;;5050428;28;20028;-74
2023/10/05 09:15:09;;;;;;;1999.90;999.90;;;23.90;99.90;;;;;;5050233;28;20104;-76
2023/10/05 09:17:35;;;;;;;1999.90;999.90;;;23.50;99.90;;;;;;5048493;28;20025;-74
2023/10/05 09:20:23;;;;;;;1999.90;999.90;;;22.30;99.90;;;;;;5050471;28;20029;-73
2023/10/05 09:22:54;;;;;;;1999.90;999.90;;;20.90;99.90;;;;;;5046374;28;20152;-78
2023/10/05 09:25:38;;;;;;;1999.90;999.90;;;20.00;99.90;;;;;;5047689;28;20045;-78
2023/10/05 09:28:28;;;;;;;1999.90;999.90;;;19.80;99.90;;;;;;5040425;28;20033;-77
2023/10/05 09:30:55;;;;;;;1999.90;999.90;;;19.40;99.90;;;;;;5048244;28;20025;-75
2023/10/05 09:33:49;;;;;;;1999.90;999.90;;;19.50;99.90;;;;;;5049447;28;20112;-77
2023/10/05 09:36:19;;;;;;;1999.90;999.90;;;19.40;99.90;;;;;;5046012;28;20045;-78
2023/10/05 09:38:46;;;;;;;1999.90;999.90;;;19.20;99.90;;;;;;5045469;28;20044;-79
2023/10/05 09:41:19;;;;;;;1999.90;999.90;;;19.20;99.90;;;;;;5050173;28;20029;-78
2023/10/05 09:43:51;;;;;;;1999.90;999.90;;;19.30;99.90;;;;;;5050317;28;20090;-75
2023/10/05 09:46:17;;;;;;;1999.90;999.90;;;19.40;99.90;;;;;;5050688;28;20037;-75
2023/10/05 09:48:43;;;;;;;1999.90;999.90;;;19.40;99.90;;;;;;5049082;28;20029;-78
2023/10/05 09:51:11;;;;;;;1999.90;999.90;;;19.40;99.90;;;;;;5049918;28;20068;-77
2023/10/05 09:53:43;;;;;;;1999.90;999.90;;;19.40;99.90;;;;;;5049103;28;20062;-75
2023/10/05 09:56:14;;;;;;;1999.90;999.90;;;19.30;99.90;;;;;;5046720;28;20017;-75
2023/10/05 09:58:41;;;;;;;;;;;19.40;99.90;;;;;;5049873;28;20704;-75
2023/10/05 10:01:10;;;;;;;1999.90;999.90;;;19.70;99.90;;;;;;5048957;28;19935;-77
2023/10/05 10:03:39;;;;;;;1999.90;999.90;;;19.60;99.90;;;;;;5049487;28;20029;-77
2023/10/05 10:06:10;;;;;;;1999.90;999.90;;;19.50;99.90;;;;;;5049386;28;20102;-77
2023/10/05 10:08:51;;;;;;;1999.90;999.90;;;19.50;99.90;;;;;;5049739;28;20039;-75
2023/10/05 10:11:18;;;;;;;1999.90;999.90;;;19.60;99.90;;;;;;5049165;28;20029;-74
2023/10/05 10:14:05;;;;;;;1999.90;999.90;;;19.70;99.90;;;;;;5048563;28;20031;-77
2023/10/05 10:16:33;;;;;;;1999.90;999.90;;;19.80;99.90;;;;;;5049611;28;20057;-77
2023/10/05 10:19:04;;;;;;;1999.90;999.90;;;20.00;99.90;;;;;;5048151;28;20496;-77
2023/10/05 10:21:35;;;;;;;1999.90;999.90;;;20.20;99.90;;;;;;5048721;28;20045;-74
2023/10/05 10:24:06;;;;;;;1999.90;999.90;;;20.30;99.90;;;;;;5049796;28;20064;-78
2023/10/05 10:26:40;;;;;;;1999.90;999.90;;;20.20;99.90;;;;;;5046710;28;20045;-78
2023/10/05 10:29:11;;;;;;;1999.90;999.90;;;20.10;99.90;;;;;;5046293;28;20037;-78
2023/10/05 10:31:43;;;;;;;1999.90;999.90;;;20.10;99.90;;;;;;5046469;28;20033;-78
2023/10/05 10:34:21;;;;;;;1999.90;999.90;;;20.10;99.90;;;;;;5043930;28;20514;-78
2023/10/05 10:36:51;;;;;;;1999.90;999.90;;;20.20;99.90;;;;;;5045954;28;20098;-75
2023/10/05 10:39:27;;;;;;;1999.90;999.90;;;20.10;99.90;;;;;;5048383;28;20037;-78
2023/10/05 10:44:28;;;;;;;1999.90;999.90;;;20.50;99.90;;;;;;5043563;28;20029;-79
2023/10/05 10:47:14;;;;;;;1999.90;999.90;;;20.70;99.90;;;;;;5047325;28;20091;-79
2023/10/05 10:49:40;;;;;;;1999.90;999.90;;;20.70;99.90;;;;;;5039641;28;20561;-74
2023/10/05 10:52:18;;;;;;;1999.90;999.90;;;20.80;99.90;;;;;;5037291;28;20021;-79
2023/10/05 10:54:48;;;;;;;1999.90;999.90;;;20.90;99.90;;;;;;5047203;28;20060;-79
2023/10/05 10:57:21;;;;;;;1999.90;999.90;;;21.00;99.90;;;;;;5042836;28;20055;-79
2023/10/05 10:59:47;;;;;;;;;;;21.00;99.90;;;;;;5042348;28;20488;-79
2023/10/05 11:02:19;;;;;;;1999.90;999.90;;;21.10;99.90;;;;;;5046156;28;19923;-74
2023/10/05 11:04:47;;;;;;;1999.90;999.90;;;21.30;99.90;;;;;;5047418;28;20078;-79
2023/10/05 11:07:13;;;;;;;1999.90;999.90;;;21.40;99.90;;;;;;5045587;28;20501;-78
2023/10/05 11:09:48;;;;;;;1999.90;999.90;;;21.30;99.90;;;;;;5048819;28;20086;-79
2023/10/05 11:12:17;;;;;;;1999.90;999.90;;;21.20;99.90;;;;;;5049599;28;20071;-79
2023/10/05 11:14:43;;;;;;;1999.90;999.90;;;21.00;99.90;;;;;;5048598;28;20353;-74
2023/10/05 11:17:30;;;;;;;1999.90;999.90;;;21.00;99.90;;;;;;5049756;28;20087;-74
2023/10/05 11:19:58;;;;;;;1999.90;999.90;;;21.00;99.90;;;;;;5043089;28;20028;-79
2023/10/05 11:22:23;;;;;;;1999.90;999.90;;;21.10;99.90;;;;;;5044930;28;20504;-78
2023/10/05 11:25:14;;;;;;;1999.90;999.90;;;21.30;99.90;;;;;;5050292;28;20055;-79
2023/10/05 11:27:49;;;;;;;1999.90;999.90;;;21.30;99.90;;;;;;5048305;28;20098;-75
2023/10/05 11:30:24;;;;;;;1999.90;999.90;;;21.20;99.90;;;;;;5050573;28;20310;-75
2023/10/05 11:32:56;;;;;;;1999.90;999.90;;;21.30;99.90;;;;;;5041702;28;20119;-79
2023/10/05 11:35:29;;;;;;;1999.90;999.90;;;21.50;99.90;;;;;;5044492;28;20129;-79
2023/10/05 11:38:06;;;;;;;1999.90;999.90;;;21.60;99.90;;;;;;5044028;28;20076;-79
2023/10/05 11:40:41;;;;;;;1999.90;999.90;;;21.70;99.90;;;;;;5048755;28;20037;-76
2023/10/05 11:43:13;;;;;;;1999.90;999.90;;;21.80;99.90;;;;;;5051463;28;20060;-75
2023/10/05 11:45:53;;;;;;;1999.90;999.90;;;22.10;99.90;;;;;;5049450;28;20503;-78
2023/10/05 11:48:20;;;;;;;1999.90;999.90;;;22.10;99.90;;;;;;5042373;28;20075;-75
2023/10/05 11:50:52;;;;;;;1999.90;999.90;;;22.30;99.90;;;;;;5052093;28;20071;-78
2023/10/05 11:53:22;;;;;;;1999.90;999.90;;;22.40;99.90;;;;;;5048153;28;20024;-75
2023/10/05 11:55:51;;;;;;;1999.90;999.90;;;22.60;99.90;;;;;;5044863;28;20033;-75
2023/10/05 11:58:18;;;;;;;1999.90;999.90;;;22.70;99.90;;;;;;5051201;28;20076;-78
2023/10/05 12:00:46;;;;;;;1999.90;999.90;;;22.90;99.90;;;;;;5051331;28;20118;-78
2023/10/05 12:03:12;;;;;;;1999.90;999.90;;;23.00;99.90;;;;;;5051062;28;20033;-78
2023/10/05 12:05:41;;;;;;;1999.90;999.90;;;23.00;99.90;;;;;;5045433;28;20037;-74
2023/10/05 12:08:07;;;;;;;1999.90;999.90;;;23.10;99.90;;;;;;5050778;28;20118;-74
2023/10/05 12:10:32;;;;;;;1999.90;999.90;;;22.80;99.90;;;;;;5050551;28;20088;-78
2023/10/05 12:13:01;;;;;;;1999.90;999.90;;;22.50;99.90;;;;;;5051500;28;20040;-77
2023/10/05 12:15:28;;;;;;;1999.90;999.90;;;22.70;99.90;;;;;;5051655;28;20025;-78
2023/10/05 12:17:54;;;;;;;1999.90;999.90;;;22.80;99.90;;;;;;5049707;28;20144;-78
2023/10/05 12:20:21;;;;;;;1999.90;999.90;;;22.90;99.90;;;;;;5050917;28;20104;-75
2023/10/05 12:22:49;;;;;;;1999.90;999.90;;;23.10;99.90;;;;;;5050830;28;20037;-75
2023/10/05 12:25:24;;;;;;;1999.90;999.90;;;23.40;99.90;;;;;;5049949;28;20175;-76
2023/10/05 12:27:50;;;;;;;1999.90;999.90;;;23.40;99.90;;;;;;5048979;28;20584;-78
2023/10/05 12:30:16;;;;;;;1999.90;999.90;;;23.10;99.90;;;;;;5050710;28;20227;-77
2023/10/05 12:32:42;;;;;;;1999.90;999.90;;;22.70;99.90;;;;;;5051279;28;20581;-74
2023/10/05 12:35:13;;;;;;;1999.90;999.90;;;22.50;99.90;;;;;;5050709;28;20033;-74
2023/10/05 12:37:46;;;;;;;1999.90;999.90;;;22.50;99.90;;;;;;5050316;28;20029;-78
2023/10/05 12:40:17;;;;;;;1999.90;999.90;;;22.80;99.90;;;;;;5050012;28;20021;-78
2023/10/05 12:42:53;;;;;;;1999.90;999.90;;;22.80;99.90;;;;;;5050643;28;20503;-75